createdAt,value
2023-04-21T00:00:59.210Z,17.80
2023-04-21T00:01:59.563Z,18.00
2023-04-21T00:02:59.931Z,18.30
2023-04-21T00:04:00.363Z,18.30
2023-04-21T00:05:00.618Z,18.30
2023-04-21T00:06:00.665Z,18.40
2023-04-21T00:07:01.077Z,18.30
2023-04-21T00:08:01.389Z,18.30
2023-04-21T00:09:01.524Z,18.90
2023-04-21T00:10:01.876Z,18.70
2023-04-21T00:11:02.135Z,17.80
2023-04-21T00:12:02.490Z,18.30
2023-04-21T00:13:02.935Z,18.70
2023-04-21T00:14:03.200Z,18.50
2023-04-21T00:15:03.580Z,18.50
2023-04-21T00:16:03.892Z,18.90
2023-04-21T00:17:04.250Z,19.30
2023-04-21T00:18:04.588Z,19.60
2023-04-21T00:19:04.866Z,19.00
2023-04-21T00:20:05.161Z,19.00
2023-04-21T00:21:05.556Z,20.00
2023-04-21T00:22:05.783Z,19.50
2023-04-21T00:23:06.044Z,20.00
2023-04-21T00:24:06.333Z,20.30
2023-04-21T00:25:06.776Z,20.20
2023-04-21T00:26:06.890Z,19.60
2023-04-21T00:27:07.200Z,19.10
2023-04-21T00:28:07.503Z,17.90
2023-04-21T00:29:07.821Z,18.30
2023-04-21T00:30:08.132Z,24.50
2023-04-21T00:31:08.474Z,18.60
2023-04-21T00:32:08.771Z,18.30
2023-04-21T00:33:09.031Z,18.30
2023-04-21T00:34:09.346Z,18.60
2023-04-21T00:35:09.629Z,18.10
2023-04-21T00:36:10.001Z,18.80
2023-04-21T00:37:10.229Z,18.70
2023-04-21T00:38:10.558Z,18.80
2023-04-21T00:39:10.816Z,19.00
2023-04-21T00:40:11.132Z,18.80
2023-04-21T00:41:11.499Z,18.90
2023-04-21T00:42:11.607Z,19.30
2023-04-21T00:43:11.972Z,18.60
2023-04-21T00:44:12.217Z,19.40
2023-04-21T00:45:12.637Z,19.20
2023-04-21T00:46:12.877Z,18.90
2023-04-21T00:47:13.317Z,19.60
2023-04-21T00:48:13.490Z,19.50
2023-04-21T00:49:13.899Z,20.00
2023-04-21T00:50:14.066Z,20.20
2023-04-21T00:51:14.486Z,19.70
2023-04-21T00:52:14.643Z,19.20
2023-04-21T00:53:14.959Z,18.70
2023-04-21T00:54:15.358Z,19.70
2023-04-21T00:55:15.613Z,19.80
2023-04-21T00:56:15.874Z,19.80
2023-04-21T00:57:16.208Z,19.90
2023-04-21T00:58:16.511Z,21.10
2023-04-21T00:59:16.965Z,20.40
2023-04-21T01:00:17.211Z,20.20
2023-04-21T01:01:17.592Z,20.10
2023-04-21T01:02:17.897Z,19.80
2023-04-21T01:03:18.265Z,20.80
2023-04-21T01:04:18.467Z,21.00
2023-04-21T01:05:18.671Z,22.00
2023-04-21T01:06:19.045Z,21.30
2023-04-21T01:07:19.153Z,21.50
2023-04-21T01:08:19.442Z,21.50
2023-04-21T01:09:19.953Z,23.40
2023-04-21T01:10:19.978Z,21.70
2023-04-21T01:11:20.354Z,22.90
2023-04-21T01:12:20.650Z,21.70
2023-04-21T01:13:21.038Z,21.70
2023-04-21T01:14:21.192Z,22.20
2023-04-21T01:15:21.543Z,22.60
2023-04-21T01:16:21.918Z,22.50
2023-04-21T01:17:22.164Z,22.70
2023-04-21T01:18:22.461Z,22.30
2023-04-21T01:19:22.696Z,22.90
2023-04-21T01:20:23.054Z,23.40
2023-04-21T01:21:23.375Z,23.50
2023-04-21T01:22:23.666Z,23.50
2023-04-21T01:23:24.114Z,23.50
2023-04-21T01:24:24.260Z,24.30
2023-04-21T01:25:24.525Z,25.10
2023-04-21T01:26:25.027Z,24.50
2023-04-21T01:27:25.164Z,23.60
2023-04-21T01:28:25.513Z,24.50
2023-04-21T01:29:25.798Z,24.20
2023-04-21T01:30:26.211Z,23.50
2023-04-21T01:31:26.453Z,24.40
2023-04-21T01:32:26.860Z,24.60
2023-04-21T01:33:27.099Z,25.10
2023-04-21T01:34:27.400Z,25.30
2023-04-21T01:35:27.810Z,24.60
2023-04-21T01:36:27.949Z,24.60
2023-04-21T01:37:28.288Z,24.70
2023-04-21T01:38:28.580Z,24.40
2023-04-21T01:39:28.909Z,24.60
2023-04-21T01:40:29.217Z,24.00
2023-04-21T01:41:29.569Z,24.70
2023-04-21T01:42:29.852Z,24.60
2023-04-21T01:43:30.169Z,24.00
2023-04-21T01:44:30.496Z,24.80
2023-04-21T01:45:30.809Z,24.10
2023-04-21T01:46:31.186Z,23.40
2023-04-21T01:47:31.557Z,23.00
2023-04-21T01:48:31.716Z,23.60
2023-04-21T01:49:32.117Z,23.50
2023-04-21T01:50:32.357Z,23.00
2023-04-21T01:51:32.617Z,24.30
2023-04-21T01:52:32.986Z,24.20
2023-04-21T01:53:33.148Z,24.80
2023-04-21T01:54:34.399Z,25.50
2023-04-21T01:55:33.715Z,24.70
2023-04-21T01:56:34.004Z,24.80
2023-04-21T01:57:34.329Z,24.80
2023-04-21T01:58:34.696Z,24.20
2023-04-21T01:59:34.992Z,24.60
2023-04-21T02:00:35.277Z,24.60
2023-04-21T02:01:35.615Z,25.50
2023-04-21T02:02:36.004Z,25.80
2023-04-21T02:03:36.287Z,26.50
2023-04-21T02:04:36.689Z,26.20
2023-04-21T02:05:36.847Z,26.80
2023-04-21T02:06:37.165Z,27.40
2023-04-21T02:07:37.480Z,27.50
2023-04-21T02:08:37.838Z,28.80
2023-04-21T02:09:38.114Z,27.90
2023-04-21T02:10:38.413Z,29.20
2023-04-21T02:11:38.821Z,30.70
2023-04-21T02:12:39.034Z,30.30
2023-04-21T02:13:39.408Z,32.10
2023-04-21T02:14:39.594Z,32.10
2023-04-21T02:15:39.950Z,31.90
2023-04-21T02:16:40.426Z,31.60
2023-04-21T02:17:40.577Z,31.20
2023-04-21T02:18:41.677Z,31.80
2023-04-21T02:19:41.284Z,30.40
2023-04-21T02:20:41.444Z,30.60
2023-04-21T02:21:41.808Z,30.80
2023-04-21T02:22:42.095Z,30.90
2023-04-21T02:23:42.421Z,30.40
2023-04-21T02:24:42.814Z,30.70
2023-04-21T02:25:43.067Z,30.80
2023-04-21T02:26:43.338Z,29.80
2023-04-21T02:27:43.701Z,30.00
2023-04-21T02:28:43.947Z,30.70
2023-04-21T02:29:44.279Z,30.60
2023-04-21T02:30:44.588Z,30.80
2023-04-21T02:31:58.928Z,31.90
2023-04-21T02:32:46.212Z,30.60
2023-04-21T02:33:45.412Z,30.00
2023-04-21T02:34:45.637Z,29.90
2023-04-21T02:35:46.020Z,29.00
2023-04-21T02:36:46.267Z,30.10
2023-04-21T02:37:46.605Z,30.20
2023-04-21T02:38:47.004Z,31.80
2023-04-21T02:39:47.159Z,31.90
2023-04-21T02:40:47.415Z,32.00
2023-04-21T02:41:47.849Z,33.10
2023-04-21T02:42:47.991Z,32.90
2023-04-21T02:43:48.342Z,33.40
2023-04-21T02:44:48.606Z,33.00
2023-04-21T02:45:49.057Z,32.80
2023-04-21T02:46:49.234Z,32.80
2023-04-21T02:47:49.500Z,33.30
2023-04-21T02:48:49.981Z,32.90
2023-04-21T02:49:50.072Z,34.10
2023-04-21T02:50:50.298Z,34.40
2023-04-21T02:51:50.623Z,34.30
2023-04-21T02:52:51.018Z,35.00
2023-04-21T02:53:51.268Z,35.80
2023-04-21T02:54:51.531Z,36.60
2023-04-21T02:55:51.922Z,36.40
2023-04-21T02:56:52.176Z,36.40
2023-04-21T02:57:52.443Z,36.90
2023-04-21T02:58:52.776Z,37.60
2023-04-21T02:59:53.063Z,38.10
2023-04-21T03:00:53.387Z,37.80
2023-04-21T03:01:53.729Z,38.90
2023-04-21T03:02:54.151Z,38.50
2023-04-21T03:03:54.458Z,40.50
2023-04-21T03:04:54.623Z,39.60
2023-04-21T03:05:54.937Z,39.40
2023-04-21T03:06:55.245Z,40.10
2023-04-21T03:07:55.631Z,39.90
2023-04-21T03:08:55.845Z,40.50
2023-04-21T03:09:56.208Z,40.90
2023-04-21T03:10:56.461Z,40.70
2023-04-21T03:11:56.805Z,39.70
2023-04-21T03:12:57.055Z,40.50
2023-04-21T03:13:57.425Z,41.20
2023-04-21T03:14:57.619Z,40.00
2023-04-21T03:15:57.958Z,39.20
2023-04-21T03:16:58.232Z,39.20
2023-04-21T03:17:58.548Z,38.20
2023-04-21T03:18:58.835Z,39.90
2023-04-21T03:19:59.131Z,40.00
2023-04-21T03:20:59.348Z,39.70
2023-04-21T03:21:59.644Z,43.40
2023-04-21T03:22:59.991Z,42.10
2023-04-21T03:24:00.461Z,48.10
2023-04-21T03:25:00.652Z,53.80
2023-04-21T03:26:00.885Z,56.80
2023-04-21T03:27:01.125Z,57.30
2023-04-21T03:28:01.390Z,58.60
2023-04-21T03:29:01.656Z,51.50
2023-04-21T03:30:01.950Z,56.20
2023-04-21T03:31:02.267Z,57.60
2023-04-21T03:32:02.652Z,60.80
2023-04-21T03:33:02.831Z,60.60
2023-04-21T03:34:03.118Z,55.50
2023-04-21T03:35:03.417Z,59.90
2023-04-21T03:36:03.694Z,58.60
2023-04-21T03:37:03.927Z,58.60
2023-04-21T03:38:04.429Z,57.60
2023-04-21T03:39:16.866Z,56.30
2023-04-21T03:40:05.791Z,57.00
2023-04-21T03:41:04.994Z,56.30
2023-04-21T03:42:05.363Z,56.30
2023-04-21T03:43:05.674Z,55.90
2023-04-21T03:44:05.984Z,55.70
2023-04-21T03:45:06.240Z,55.20
2023-04-21T03:46:06.637Z,55.50
2023-04-21T03:47:06.956Z,56.90
2023-04-21T03:48:07.280Z,56.60
2023-04-21T03:49:07.424Z,56.20
2023-04-21T03:50:07.756Z,54.60
2023-04-21T03:51:08.125Z,55.10
2023-04-21T03:52:08.328Z,55.00
2023-04-21T03:53:08.645Z,55.30
2023-04-21T03:54:08.946Z,56.70
2023-04-21T03:55:09.141Z,55.40
2023-04-21T03:56:09.411Z,55.10
2023-04-21T03:57:09.603Z,56.20
2023-04-21T03:58:09.993Z,56.50
2023-04-21T03:59:10.270Z,56.50
2023-04-21T04:00:10.618Z,55.90
2023-04-21T04:01:10.766Z,57.20
2023-04-21T04:02:11.201Z,57.40
2023-04-21T04:03:11.520Z,56.00
2023-04-21T04:04:12.048Z,57.10
2023-04-21T04:05:11.924Z,57.40
2023-04-21T04:06:12.298Z,56.10
2023-04-21T04:07:12.495Z,56.60
2023-04-21T04:08:12.848Z,56.50
2023-04-21T04:09:13.048Z,56.80
2023-04-21T04:10:13.408Z,56.50
2023-04-21T04:11:13.664Z,56.30
2023-04-21T04:12:13.872Z,57.00
2023-04-21T04:13:14.092Z,64.60
2023-04-21T04:14:14.457Z,58.50
2023-04-21T04:15:14.741Z,57.50
2023-04-21T04:16:15.161Z,56.40
2023-04-21T04:17:15.246Z,60.90
2023-04-21T04:18:15.587Z,60.20
2023-04-21T04:19:15.808Z,58.40
2023-04-21T04:20:16.134Z,60.20
2023-04-21T04:21:16.439Z,60.40
2023-04-21T04:22:16.644Z,60.30
2023-04-21T04:23:17.017Z,58.20
2023-04-21T04:24:17.199Z,63.80
2023-04-21T04:25:17.429Z,61.60
2023-04-21T04:26:17.862Z,60.20
2023-04-21T04:27:18.000Z,59.00
2023-04-21T04:28:18.383Z,63.80
2023-04-21T04:29:18.892Z,61.60
2023-04-21T04:30:18.994Z,67.80
2023-04-21T04:31:19.278Z,64.30
2023-04-21T04:32:19.486Z,64.40
2023-04-21T04:33:19.757Z,62.70
2023-04-21T04:34:20.045Z,66.30
2023-04-21T04:35:20.279Z,67.70
2023-04-21T04:36:20.512Z,69.00
2023-04-21T04:37:20.885Z,66.20
2023-04-21T04:38:21.081Z,65.80
2023-04-21T04:39:21.564Z,72.30
2023-04-21T04:40:21.634Z,65.50
2023-04-21T04:41:21.872Z,68.20
2023-04-21T04:42:22.258Z,69.40
2023-04-21T04:43:22.535Z,69.50
2023-04-21T04:44:22.904Z,69.20
2023-04-21T04:45:23.104Z,67.60
2023-04-21T04:46:23.447Z,67.80
2023-04-21T04:47:23.694Z,66.20
2023-04-21T04:48:23.961Z,70.10
2023-04-21T04:49:24.477Z,71.20
2023-04-21T04:50:24.513Z,67.70
2023-04-21T04:51:24.997Z,71.00
2023-04-21T04:52:25.032Z,68.50
2023-04-21T04:53:25.280Z,70.20
2023-04-21T04:54:25.653Z,72.10
2023-04-21T04:55:26.067Z,71.10
2023-04-21T04:56:26.271Z,72.50
2023-04-21T04:57:26.513Z,75.60
2023-04-21T04:58:26.797Z,70.10
2023-04-21T04:59:28.476Z,76.70
2023-04-21T05:00:28.181Z,77.10
2023-04-21T05:01:27.693Z,76.00
2023-04-21T05:02:28.109Z,76.60
2023-04-21T05:03:28.440Z,80.30
2023-04-21T05:04:29.197Z,77.60
2023-04-21T05:05:28.887Z,78.10
2023-04-21T05:06:29.072Z,75.30
2023-04-21T05:07:29.335Z,74.10
2023-04-21T05:08:29.614Z,74.70
2023-04-21T05:09:29.824Z,73.70
2023-04-21T05:10:30.261Z,77.30
2023-04-21T05:11:30.488Z,72.10
2023-04-21T05:12:30.810Z,71.80
2023-04-21T05:13:31.973Z,71.70
2023-04-21T05:14:31.473Z,69.90
2023-04-21T05:15:31.609Z,67.60
2023-04-21T05:16:31.976Z,70.60
2023-04-21T05:17:32.245Z,68.60
2023-04-21T05:18:32.538Z,70.40
2023-04-21T05:19:32.846Z,67.70
2023-04-21T05:20:33.088Z,69.30
2023-04-21T05:21:33.438Z,68.30
2023-04-21T05:22:33.733Z,68.00
2023-04-21T05:23:34.079Z,67.80
2023-04-21T05:24:34.338Z,68.30
2023-04-21T05:25:34.622Z,66.30
2023-04-21T05:26:34.874Z,64.50
2023-04-21T05:27:35.080Z,64.40
2023-04-21T05:28:35.465Z,62.60
2023-04-21T05:29:35.808Z,60.80
2023-04-21T05:30:36.083Z,59.70
2023-04-21T05:31:36.415Z,61.60
2023-04-21T05:32:36.680Z,63.10
2023-04-21T05:33:36.947Z,64.20
2023-04-21T05:34:37.409Z,64.50
2023-04-21T05:35:38.222Z,64.00
2023-04-21T05:36:37.812Z,64.10
2023-04-21T05:37:38.129Z,65.60
2023-04-21T05:38:38.598Z,64.80
2023-04-21T05:39:38.751Z,64.00
2023-04-21T05:40:39.078Z,64.90
2023-04-21T05:41:39.318Z,63.90
2023-04-21T05:42:39.594Z,64.80
2023-04-21T05:43:39.882Z,62.70
2023-04-21T05:44:40.277Z,62.00
2023-04-21T05:45:40.443Z,59.00
2023-04-21T05:46:41.174Z,65.10
2023-04-21T05:47:41.001Z,58.00
2023-04-21T05:48:41.273Z,58.20
2023-04-21T05:49:41.579Z,58.10
2023-04-21T05:50:41.798Z,59.10
2023-04-21T05:51:42.715Z,55.30
2023-04-21T05:52:42.431Z,55.30
2023-04-21T05:53:42.735Z,55.40
2023-04-21T05:54:42.975Z,56.30
2023-04-21T05:55:43.731Z,56.10
2023-04-21T05:56:43.677Z,56.00
2023-04-21T05:57:43.824Z,54.70
2023-04-21T05:58:44.200Z,53.90
2023-04-21T05:59:44.475Z,52.70
2023-04-21T06:00:44.827Z,53.40
2023-04-21T06:01:45.027Z,55.40
2023-04-21T06:02:45.598Z,56.20
2023-04-21T06:03:45.809Z,52.50
2023-04-21T06:04:46.075Z,53.00
2023-04-21T06:05:46.192Z,51.80
2023-04-21T06:06:46.427Z,52.60
2023-04-21T06:07:46.651Z,52.30
2023-04-21T06:08:47.065Z,51.40
2023-04-21T06:09:47.307Z,53.20
2023-04-21T06:10:47.554Z,53.10
2023-04-21T06:11:47.889Z,51.00
2023-04-21T06:12:48.155Z,51.30
2023-04-21T06:13:48.342Z,51.00
2023-04-21T06:14:48.637Z,51.50
2023-04-21T06:15:48.884Z,53.10
2023-04-21T06:16:49.234Z,52.40
2023-04-21T06:17:49.488Z,51.90
2023-04-21T06:18:49.951Z,46.80
2023-04-21T06:19:50.160Z,46.90
2023-04-21T06:20:50.806Z,50.30
2023-04-21T06:21:50.705Z,50.00
2023-04-21T06:22:50.957Z,48.70
2023-04-21T06:23:51.237Z,46.80
2023-04-21T06:24:51.633Z,47.90
2023-04-21T06:25:51.731Z,47.60
2023-04-21T06:26:52.009Z,47.70
2023-04-21T06:27:52.284Z,45.80
2023-04-21T06:28:52.628Z,47.20
2023-04-21T06:29:52.862Z,45.70
2023-04-21T06:30:53.132Z,50.90
2023-04-21T06:31:53.424Z,46.50
2023-04-21T06:32:53.663Z,46.20
2023-04-21T06:33:54.032Z,45.80
2023-04-21T06:34:54.258Z,46.60
2023-04-21T06:35:54.512Z,46.30
2023-04-21T06:36:54.728Z,46.50
2023-04-21T06:37:55.018Z,48.30
2023-04-21T06:38:55.787Z,50.10
2023-04-21T06:39:56.847Z,50.10
2023-04-21T06:40:57.289Z,48.20
2023-04-21T06:41:57.633Z,48.60
2023-04-21T06:42:56.566Z,46.30
2023-04-21T06:43:56.821Z,47.10
2023-04-21T06:44:56.932Z,46.80
2023-04-21T06:45:57.199Z,44.50
2023-04-21T06:46:57.581Z,44.40
2023-04-21T06:47:57.719Z,44.60
2023-04-21T06:48:58.007Z,46.60
2023-04-21T06:49:58.220Z,45.70
2023-04-21T06:50:58.625Z,47.40
2023-04-21T06:51:58.890Z,47.30
2023-04-21T06:52:59.120Z,48.10
2023-04-21T06:53:59.370Z,46.70
2023-04-21T06:54:59.714Z,47.70
2023-04-21T06:55:59.921Z,45.90
2023-04-21T06:57:00.326Z,45.00
2023-04-21T06:58:00.570Z,45.30
2023-04-21T06:59:00.961Z,46.50
2023-04-21T07:00:01.100Z,43.60
2023-04-21T07:01:01.312Z,44.90
2023-04-21T07:02:01.550Z,45.70
2023-04-21T07:03:02.075Z,44.70
2023-04-21T07:04:02.354Z,46.50
2023-04-21T07:05:02.519Z,48.10
2023-04-21T07:06:02.804Z,46.20
2023-04-21T07:07:03.410Z,48.00
2023-04-21T07:08:03.239Z,47.00
2023-04-21T07:09:03.606Z,46.50
2023-04-21T07:10:03.773Z,46.80
2023-04-21T07:11:04.226Z,49.00
2023-04-21T07:12:04.403Z,48.10
2023-04-21T07:13:04.637Z,49.30
2023-04-21T07:14:04.999Z,47.10
2023-04-21T07:15:05.290Z,49.70
2023-04-21T07:16:05.475Z,51.70
2023-04-21T07:17:05.854Z,50.00
2023-04-21T07:18:06.039Z,50.40
2023-04-21T07:19:06.294Z,50.00
2023-04-21T07:20:06.511Z,50.40
2023-04-21T07:21:06.916Z,47.30
2023-04-21T07:22:07.155Z,48.00
2023-04-21T07:23:07.376Z,47.30
2023-04-21T07:24:07.678Z,47.90
2023-04-21T07:25:08.049Z,45.70
2023-04-21T07:26:08.308Z,45.40
2023-04-21T07:27:08.555Z,47.30
2023-04-21T07:28:08.809Z,44.80
2023-04-21T07:29:09.090Z,47.00
2023-04-21T07:30:09.298Z,44.30
2023-04-21T07:31:09.704Z,42.80
2023-04-21T07:32:09.927Z,41.10
2023-04-21T07:33:10.352Z,40.80
2023-04-21T07:34:11.075Z,39.80
2023-04-21T07:35:10.897Z,39.00
2023-04-21T07:36:11.287Z,37.00
2023-04-21T07:37:11.490Z,37.60
2023-04-21T07:38:11.774Z,40.80
2023-04-21T07:39:12.042Z,41.40
2023-04-21T07:40:12.299Z,43.40
2023-04-21T07:41:12.560Z,45.30
2023-04-21T07:42:12.946Z,43.60
2023-04-21T07:43:13.138Z,42.30
2023-04-21T07:44:13.501Z,44.10
2023-04-21T07:45:13.716Z,44.20
2023-04-21T07:46:14.029Z,43.50
2023-04-21T07:47:14.266Z,45.00
2023-04-21T07:48:14.555Z,46.10
2023-04-21T07:49:14.924Z,47.40
2023-04-21T07:50:15.219Z,50.20
2023-04-21T07:51:15.551Z,48.80
2023-04-21T07:52:15.715Z,48.80
2023-04-21T07:53:15.914Z,48.60
2023-04-21T07:54:16.235Z,52.80
2023-04-21T07:55:16.660Z,49.60
2023-04-21T07:56:16.870Z,50.90
2023-04-21T07:57:17.115Z,50.10
2023-04-21T07:58:17.408Z,49.30
2023-04-21T07:59:17.813Z,47.40
2023-04-21T08:00:18.958Z,47.00
2023-04-21T08:01:18.289Z,48.00
2023-04-21T08:02:18.602Z,48.60
2023-04-21T08:03:19.931Z,47.60
2023-04-21T08:04:19.598Z,40.40
2023-04-21T08:05:19.602Z,39.70
2023-04-21T08:06:20.204Z,40.90
2023-04-21T08:07:19.942Z,40.30
2023-04-21T08:08:20.324Z,40.90
2023-04-21T08:09:20.691Z,40.60
2023-04-21T08:10:20.948Z,42.10
2023-04-21T08:11:21.273Z,45.70
2023-04-21T08:12:21.484Z,47.20
2023-04-21T08:13:21.912Z,49.00
2023-04-21T08:14:22.286Z,47.80
2023-04-21T08:15:22.552Z,46.70
2023-04-21T08:16:22.723Z,46.60
2023-04-21T08:17:23.045Z,45.20
2023-04-21T08:18:23.661Z,42.20
2023-04-21T08:19:23.554Z,40.60
2023-04-21T08:20:23.833Z,41.70
2023-04-21T08:21:24.065Z,41.40
2023-04-21T08:22:24.759Z,39.90
2023-04-21T08:23:24.760Z,39.90
2023-04-21T08:24:25.001Z,42.00
2023-04-21T08:25:25.306Z,44.70
2023-04-21T08:26:25.610Z,39.00
2023-04-21T08:27:26.270Z,36.90
2023-04-21T08:28:26.096Z,39.10
2023-04-21T08:29:26.346Z,38.40
2023-04-21T08:30:26.832Z,37.70
2023-04-21T08:31:26.953Z,40.30
2023-04-21T08:32:27.211Z,38.20
2023-04-21T08:33:27.524Z,41.50
2023-04-21T08:34:28.324Z,43.10
2023-04-21T08:35:28.224Z,45.00
2023-04-21T08:36:29.843Z,45.30
2023-04-21T08:37:28.861Z,43.90
2023-04-21T08:38:28.914Z,44.30
2023-04-21T08:39:29.188Z,44.90
2023-04-21T08:40:29.463Z,44.00
2023-04-21T08:41:29.733Z,42.90
2023-04-21T08:42:30.001Z,43.70
2023-04-21T08:43:30.251Z,45.00
2023-04-21T08:44:30.489Z,42.60
2023-04-21T08:45:30.857Z,42.40
2023-04-21T08:46:31.270Z,41.60
2023-04-21T08:47:31.361Z,44.20
2023-04-21T08:48:31.625Z,46.80
2023-04-21T08:49:31.931Z,45.60
2023-04-21T08:50:32.308Z,44.00
2023-04-21T08:51:32.482Z,43.40
2023-04-21T08:52:32.718Z,40.80
2023-04-21T08:53:32.931Z,39.00
2023-04-21T08:54:33.221Z,38.40
2023-04-21T08:55:33.442Z,38.40
2023-04-21T08:56:33.773Z,33.70
2023-04-21T08:57:33.988Z,32.20
2023-04-21T08:58:34.347Z,32.10
2023-04-21T08:59:34.552Z,28.80
2023-04-21T09:00:34.786Z,26.30
2023-04-21T09:01:35.138Z,27.80
2023-04-21T09:02:35.535Z,28.50
2023-04-21T09:03:35.716Z,28.70
2023-04-21T09:04:36.151Z,26.40
2023-04-21T09:05:39.633Z,25.80
2023-04-21T09:06:37.393Z,26.70
2023-04-21T09:07:37.044Z,26.20
2023-04-21T09:08:36.927Z,24.80
2023-04-21T09:09:37.325Z,25.00
2023-04-21T09:10:37.694Z,23.80
2023-04-21T09:11:37.888Z,23.70
2023-04-21T09:12:38.290Z,23.40
2023-04-21T09:13:38.606Z,23.10
2023-04-21T09:14:38.800Z,22.30
2023-04-21T09:15:39.069Z,22.10
2023-04-21T09:16:39.422Z,21.30
2023-04-21T09:17:39.636Z,19.20
2023-04-21T09:18:40.264Z,19.50
2023-04-21T09:19:40.285Z,18.90
2023-04-21T09:20:40.705Z,17.30
2023-04-21T09:21:40.815Z,17.10
2023-04-21T09:22:41.023Z,17.20
2023-04-21T09:23:41.549Z,16.70
2023-04-21T09:24:41.790Z,17.60
2023-04-21T09:25:42.073Z,18.30
2023-04-21T09:26:42.291Z,16.70
2023-04-21T09:27:42.569Z,18.00
2023-04-21T09:28:42.807Z,20.00
2023-04-21T09:29:43.096Z,15.30
2023-04-21T09:30:43.412Z,15.20
2023-04-21T09:31:43.665Z,17.60
2023-04-21T09:32:43.994Z,18.80
2023-04-21T09:33:54.321Z,18.20
2023-04-21T09:34:45.874Z,17.90
2023-04-21T09:35:44.662Z,17.60
2023-04-21T09:36:44.961Z,19.10
2023-04-21T09:37:45.177Z,16.20
2023-04-21T09:38:45.697Z,16.60
2023-04-21T09:39:56.708Z,16.20
2023-04-21T09:40:47.065Z,15.50
2023-04-21T09:41:46.366Z,14.30
2023-04-21T09:42:46.631Z,15.50
2023-04-21T09:43:46.874Z,17.50
2023-04-21T09:44:56.288Z,15.50
2023-04-21T09:45:48.665Z,14.10
2023-04-21T09:46:47.719Z,14.00
2023-04-21T09:47:47.986Z,13.90
2023-04-21T09:48:48.279Z,13.50
2023-04-21T09:49:48.499Z,12.80
2023-04-21T09:52:17.009Z,13.60
2023-04-21T09:52:50.340Z,12.40
2023-04-21T09:53:49.616Z,13.00
2023-04-21T09:54:50.793Z,12.10
2023-04-21T09:55:50.245Z,12.30
2023-04-21T09:56:50.484Z,12.50
2023-04-21T09:57:50.795Z,13.40
2023-04-21T09:58:51.110Z,13.10
2023-04-21T09:59:51.471Z,12.60
2023-04-21T10:00:52.609Z,12.50
2023-04-21T10:01:52.061Z,12.30
2023-04-21T10:02:52.461Z,12.70
2023-04-21T10:03:52.679Z,12.20
2023-04-21T10:04:53.063Z,11.30
2023-04-21T10:05:53.195Z,11.60
2023-04-21T10:06:53.416Z,11.40
2023-04-21T10:07:53.769Z,12.00
2023-04-21T10:08:54.056Z,11.40
2023-04-21T10:09:54.355Z,12.20
2023-04-21T10:10:54.603Z,11.70
2023-04-21T10:11:55.047Z,11.90
2023-04-21T10:12:55.333Z,12.00
2023-04-21T10:13:55.545Z,11.90
2023-04-21T10:14:55.768Z,11.80
2023-04-21T10:15:56.244Z,14.40
2023-04-21T10:16:56.428Z,14.90
2023-04-21T10:17:56.857Z,13.30
2023-04-21T10:18:57.214Z,13.80
2023-04-21T10:19:57.363Z,15.10
2023-04-21T10:20:57.876Z,14.30
2023-04-21T10:21:58.036Z,14.60
2023-04-21T10:22:58.247Z,16.50
2023-04-21T10:23:58.593Z,15.30
2023-04-21T10:24:58.772Z,15.60
2023-04-21T10:25:59.335Z,16.20
2023-04-21T10:26:59.402Z,15.80
2023-04-21T10:27:59.969Z,16.10
2023-04-21T10:29:00.061Z,17.20
2023-04-21T10:30:00.344Z,17.50
2023-04-21T10:31:00.544Z,16.00
2023-04-21T10:32:00.963Z,15.90
2023-04-21T10:33:01.107Z,16.40
2023-04-21T10:34:01.607Z,16.20
2023-04-21T10:35:01.617Z,16.80
2023-04-21T10:36:01.889Z,17.30
2023-04-21T10:37:02.153Z,17.10
2023-04-21T10:38:02.478Z,14.80
2023-04-21T10:39:02.779Z,15.20
2023-04-21T10:40:03.038Z,16.80
2023-04-21T10:41:03.387Z,15.40
2023-04-21T10:42:03.634Z,15.50
2023-04-21T10:43:03.933Z,15.60
2023-04-21T10:44:04.205Z,15.50
2023-04-21T10:45:04.462Z,14.50
2023-04-21T10:46:04.813Z,14.20
2023-04-21T10:47:05.092Z,14.10
2023-04-21T10:48:05.345Z,14.10
2023-04-21T10:49:05.564Z,16.40
2023-04-21T10:50:05.884Z,14.50
2023-04-21T10:51:06.053Z,14.50
2023-04-21T10:52:06.515Z,14.50
2023-04-21T10:53:06.726Z,12.50
2023-04-21T10:54:06.997Z,11.60
2023-04-21T10:55:07.345Z,11.10
2023-04-21T10:56:07.552Z,11.20
2023-04-21T10:57:07.766Z,10.90
2023-04-21T10:58:08.039Z,10.20
2023-04-21T10:59:08.317Z,9.90
2023-04-21T11:00:08.634Z,10.50
2023-04-21T11:01:08.894Z,10.00
2023-04-21T11:02:09.290Z,10.20
2023-04-21T11:03:09.652Z,10.80
2023-04-21T11:04:09.789Z,10.00
2023-04-21T11:05:10.199Z,10.90
2023-04-21T11:06:11.113Z,9.70
2023-04-21T11:07:10.430Z,9.50
2023-04-21T11:08:10.765Z,9.30
2023-04-21T11:09:11.021Z,9.90
2023-04-21T11:10:11.411Z,10.10
2023-04-21T11:11:11.568Z,8.90
2023-04-21T11:12:11.768Z,8.90
2023-04-21T11:13:12.173Z,9.10
2023-04-21T11:14:12.386Z,9.10
2023-04-21T11:15:12.664Z,9.60
2023-04-21T11:16:12.948Z,9.40
2023-04-21T11:17:13.294Z,7.90
2023-04-21T11:18:13.578Z,7.80
2023-04-21T11:19:14.684Z,8.00
2023-04-21T11:20:14.082Z,7.10
2023-04-21T11:21:14.500Z,7.10
2023-04-21T11:22:14.599Z,7.20
2023-04-21T11:23:14.958Z,6.80
2023-04-21T11:24:15.316Z,7.30
2023-04-21T11:25:15.580Z,7.50
2023-04-21T11:26:15.798Z,7.00
2023-04-21T11:27:16.093Z,6.90
2023-04-21T11:28:16.554Z,6.80
2023-04-21T11:29:16.604Z,7.00
2023-04-21T11:30:17.086Z,6.70
2023-04-21T11:31:17.297Z,7.00
2023-04-21T11:32:18.485Z,7.30
2023-04-21T11:33:18.037Z,7.00
2023-04-21T11:34:18.441Z,7.10
2023-04-21T11:35:18.481Z,6.70
2023-04-21T11:36:18.712Z,6.70
2023-04-21T11:37:19.010Z,6.80
2023-04-21T11:38:19.250Z,7.10
2023-04-21T11:39:21.569Z,6.80
2023-04-21T11:40:19.766Z,6.80
2023-04-21T11:41:20.096Z,6.30
2023-04-21T11:42:20.260Z,7.50
2023-04-21T11:43:20.519Z,7.40
2023-04-21T11:44:20.974Z,7.10
2023-04-21T11:45:22.448Z,6.60
2023-04-21T11:46:21.489Z,7.00
2023-04-21T11:47:21.825Z,6.70
2023-04-21T11:48:21.989Z,6.40
2023-04-21T11:49:22.210Z,7.20
2023-04-21T11:50:22.636Z,6.70
2023-04-21T11:51:22.919Z,6.00
2023-04-21T11:52:23.287Z,6.30
2023-04-21T11:53:23.504Z,6.10
2023-04-21T11:54:23.766Z,6.10
2023-04-21T11:55:24.066Z,6.20
2023-04-21T11:56:24.277Z,6.20
2023-04-21T11:57:24.579Z,6.00
2023-04-21T11:58:24.805Z,6.10
2023-04-21T11:59:26.063Z,6.00
2023-04-21T12:00:25.404Z,5.70
2023-04-21T12:01:25.725Z,5.70
2023-04-21T12:02:26.038Z,6.10
2023-04-21T12:03:26.449Z,6.40
2023-04-21T12:04:26.683Z,6.20
2023-04-21T12:05:26.964Z,5.90
2023-04-21T12:06:27.319Z,5.80
2023-04-21T12:07:27.383Z,5.90
2023-04-21T12:08:27.725Z,5.90
2023-04-21T12:09:28.200Z,6.00
2023-04-21T12:10:28.421Z,5.90
2023-04-21T12:11:28.629Z,5.70
2023-04-21T12:12:28.990Z,5.80
2023-04-21T12:13:29.144Z,5.70
2023-04-21T12:14:29.430Z,5.90
2023-04-21T12:15:29.673Z,5.90
2023-04-21T12:16:30.036Z,6.00
2023-04-21T12:17:30.326Z,5.90
2023-04-21T12:18:30.638Z,5.80
2023-04-21T12:19:30.793Z,6.20
2023-04-21T12:20:31.425Z,6.30
2023-04-21T12:21:31.451Z,6.30
2023-04-21T12:22:31.612Z,6.20
2023-04-21T12:23:32.060Z,6.40
2023-04-21T12:24:32.690Z,6.50
2023-04-21T12:25:32.548Z,6.50
2023-04-21T12:26:32.754Z,8.00
2023-04-21T12:27:33.137Z,6.10
2023-04-21T12:28:33.362Z,6.60
2023-04-21T12:29:33.614Z,6.80
2023-04-21T12:30:37.493Z,6.80
2023-04-21T12:31:34.208Z,7.30
2023-04-21T12:32:34.915Z,7.80
2023-04-21T12:33:34.687Z,6.80
2023-04-21T12:34:34.989Z,6.70
2023-04-21T12:35:35.196Z,7.10
2023-04-21T12:36:36.511Z,7.40
2023-04-21T12:37:35.772Z,6.60
2023-04-21T12:38:35.995Z,6.90
2023-04-21T12:39:36.398Z,6.60
2023-04-21T12:40:36.598Z,6.80
2023-04-21T12:41:36.944Z,7.00
2023-04-21T12:42:38.041Z,6.80
2023-04-21T12:43:37.514Z,6.90
2023-04-21T12:44:37.766Z,6.80
2023-04-21T12:45:38.005Z,6.80
2023-04-21T12:46:38.281Z,6.70
2023-04-21T12:47:39.049Z,6.70
2023-04-21T12:48:38.825Z,7.00
2023-04-21T12:49:39.225Z,6.90
2023-04-21T12:50:39.450Z,7.20
2023-04-21T12:51:39.844Z,6.80
2023-04-21T12:52:40.106Z,6.40
2023-04-21T12:53:40.365Z,7.00
2023-04-21T12:54:40.587Z,6.80
2023-04-21T12:55:46.999Z,6.60
2023-04-21T12:56:42.324Z,7.40
2023-04-21T12:57:42.054Z,6.80
2023-04-21T12:58:41.860Z,6.90
2023-04-21T12:59:43.640Z,6.70
2023-04-21T13:00:42.372Z,7.00
2023-04-21T13:01:42.682Z,7.50